Time;durP1;ratioP1;P1;durP2;ratioP2;P2;SDS_P1;SDS_P2;PMS_P1;PMS_P2;Temp;Humidity;BMP_temperature;BMP_pressure;BME280_temperature;BME280_humidity;BME280_pressure;Samples;Min_cycle;Max_cycle;Signal;HPM_P1;HPM_P2
2023/03/21 00:01:53;;;;;;;1.33;1.00;;;;;;;;;;4980750;28;87064;-53
2023/03/21 00:04:24;;;;;;;1.17;0.87;;;;;;;;;;4980473;28;88932;-53
2023/03/21 00:06:52;;;;;;;0.40;0.40;;;;;;;;;;4981754;28;88666;-53
2023/03/21 00:09:21;;;;;;;1.67;0.40;;;;;;;;;;4981551;28;87030;-53
2023/03/21 00:11:49;;;;;;;0.53;0.50;;;;;;;;;;4981485;28;87019;-53
2023/03/21 00:14:18;;;;;;;0.67;0.47;;;;;;;;;;4981319;28;89290;-53
2023/03/21 00:16:49;;;;;;;0.73;0.73;;;;;;;;;;4981309;28;87943;-53
2023/03/21 00:19:19;;;;;;;1.53;0.70;;;;;;;;;;4981958;28;87075;-53
2023/03/21 00:21:51;;;;;;;0.63;0.57;;;;;;;;;;4980673;28;86366;-53
2023/03/21 00:24:36;;;;;;;0.40;0.40;;;;;;;;;;4961634;28;88090;-53
2023/03/21 00:27:04;;;;;;;0.93;0.57;;;;;;;;;;4961408;28;89024;-53
2023/03/21 00:29:55;;;;;;;0.37;0.37;;;;;;;;;;4960934;28;87972;-53
2023/03/21 00:32:23;;;;;;;0.57;0.57;;;;;;;;;;4979721;28;87109;-53
2023/03/21 00:34:53;;;;;;;0.50;0.50;;;;;;;;;;4980061;28;88027;-53
2023/03/21 00:37:41;;;;;;;0.40;0.40;;;;;;;;;;4978807;28;88896;-53
2023/03/21 00:40:11;;;;;;;0.60;0.60;;;;;;;;;;4979800;28;87136;-53
2023/03/21 00:42:52;;;;;;;0.70;0.70;;;;;;;;;;4980254;28;87251;-53
2023/03/21 00:45:22;;;;;;;0.30;0.30;;;;;;;;;;4978692;28;87724;-53
2023/03/21 00:47:52;;;;;;;0.80;0.77;;;;;;;;;;4980847;28;88933;-53
2023/03/21 00:50:22;;;;;;;0.83;0.53;;;;;;;;;;4980180;28;87047;-53
2023/03/21 00:52:50;;;;;;;0.40;0.40;;;;;;;;;;4980961;28;87100;-53
2023/03/21 00:55:19;;;;;;;0.70;0.70;;;;;;;;;;4980213;28;89197;-53
2023/03/21 00:57:47;;;;;;;0.60;0.60;;;;;;;;;;4980618;28;88736;-53
2023/03/21 01:00:26;;;;;;;0.57;0.57;;;;;;;;;;4980733;28;87110;-53
2023/03/21 01:02:56;;;;;;;0.60;0.57;;;;;;;;;;4980526;28;87215;-53
2023/03/21 01:08:24;;;;;;;3.73;0.43;;;;;;;;;;4980516;28;89036;-53
2023/03/21 01:11:02;;;;;;;0.83;0.60;;;;;;;;;;4980806;28;87098;-53
2023/03/21 01:13:30;;;;;;;2.00;0.90;;;;;;;;;;4979878;28;86367;-53
2023/03/21 01:16:04;;;;;;;0.70;0.70;;;;;;;;;;4980530;28;87085;-53
2023/03/21 01:18:32;;;;;;;0.50;0.50;;;;;;;;;;4980670;28;87898;-53
2023/03/21 01:21:06;;;;;;;0.53;0.53;;;;;;;;;;4980029;28;88008;-53
2023/03/21 01:23:35;;;;;;;0.50;0.50;;;;;;;;;;4980443;28;86998;-52
2023/03/21 01:26:04;;;;;;;1.60;0.53;;;23.30;61.50;;;;;;4980029;28;88738;-53
2023/03/21 01:28:32;;;;;;;0.40;0.40;;;;;;;;;;4979799;28;87877;-53
2023/03/21 01:31:01;;;;;;;0.50;0.50;;;23.70;65.50;;;;;;4980523;28;87118;-53
2023/03/21 01:33:29;;;;;;;0.80;0.70;;;23.30;68.00;;;;;;4979500;28;87223;-53
2023/03/21 01:35:57;;;;;;;0.40;0.40;;;23.20;71.80;;;;;;4978847;28;87098;-53
2023/03/21 01:38:41;;;;;;;0.47;0.47;;;23.20;76.30;;;;;;4970372;28;87814;-53
2023/03/21 01:41:10;;;;;;;0.50;0.40;;;;;;;;;;4971279;28;87191;-53
2023/03/21 01:43:47;;;;;;;0.50;0.50;;;;;;;;;;4978179;28;87106;-52
2023/03/21 01:46:20;;;;;;;0.53;0.50;;;;;;;;;;4979930;28;90097;-52
2023/03/21 01:48:50;;;;;;;0.40;0.40;;;;;;;;;;4979826;28;88771;-53
2023/03/21 01:51:19;;;;;;;0.93;0.60;;;;;;;;;;4980055;28;87031;-54
2023/03/21 01:53:48;;;;;;;1.47;0.73;;;;;;;;;;4979158;28;87293;-53
2023/03/21 01:56:18;;;;;;;1.00;0.60;;;;;;;;;;4979293;28;87045;-53
2023/03/21 01:58:46;;;;;;;1.27;0.77;;;23.20;44.50;;;;;;4979380;28;88935;-53
2023/03/21 02:01:15;;;;;;;0.50;0.50;;;23.10;45.00;;;;;;4981622;28;87070;-53
2023/03/21 02:03:50;;;;;;;1.40;0.77;;;23.20;45.10;;;;;;4982887;28;86407;-54
2023/03/21 02:06:23;;;;;;;0.40;0.40;;;23.20;45.20;;;;;;4982489;28;89271;-53
2023/03/21 02:08:53;;;;;;;1.27;0.73;;;23.10;45.10;;;;;;4982081;28;88769;-53
2023/03/21 02:11:22;;;;;;;0.50;0.50;;;23.10;45.20;;;;;;4982534;28;88127;-53
2023/03/21 02:13:50;;;;;;;0.77;0.43;;;23.10;45.20;;;;;;4982599;28;87054;-53
2023/03/21 02:16:33;;;;;;;0.77;0.60;;;23.10;45.20;;;;;;4982143;28;87996;-53
2023/03/21 02:19:10;;;;;;;0.60;0.60;;;23.10;45.20;;;;;;4980666;28;89008;-53
2023/03/21 02:21:50;;;;;;;0.30;0.30;;;23.10;45.30;;;;;;4969414;28;87046;-53
2023/03/21 02:24:30;;;;;;;0.40;0.40;;;23.10;46.00;;;;;;4981303;28;87157;-53
2023/03/21 02:27:06;;;;;;;1.90;0.57;;;23.10;45.30;;;;;;4982996;28;89097;-53
2023/03/21 02:30:13;;;;;;;0.63;0.63;;;23.10;45.30;;;;;;4982293;28;87831;-53
2023/03/21 02:33:12;;;;;;;0.70;0.70;;;23.00;45.30;;;;;;4952633;28;87107;-53
2023/03/21 02:35:52;;;;;;;0.60;0.50;;;23.00;45.30;;;;;;4980101;28;87232;-52
2023/03/21 02:38:29;;;;;;;0.40;0.40;;;23.00;45.30;;;;;;4982828;28;89374;-52
2023/03/21 02:41:01;;;;;;;0.40;0.40;;;22.90;45.30;;;;;;4982156;28;89907;-53
2023/03/21 02:43:37;;;;;;;0.63;0.63;;;23.00;45.30;;;;;;4982811;28;87095;-53
2023/03/21 02:46:08;;;;;;;0.37;0.37;;;22.90;45.30;;;;;;4982269;28;87055;-53
2023/03/21 02:48:38;;;;;;;0.60;0.40;;;22.90;45.30;;;;;;4982513;28;89250;-53
2023/03/21 02:51:18;;;;;;;0.73;0.40;;;22.90;45.30;;;;;;4980925;28;88867;-53
2023/03/21 02:53:52;;;;;;;0.50;0.50;;;22.90;45.30;;;;;;4982456;28;86970;-53
2023/03/21 02:56:40;;;;;;;0.40;0.40;;;22.90;45.30;;;;;;4963305;28;86394;-54
2023/03/21 02:59:08;;;;;;;0.40;0.40;;;22.90;45.30;;;;;;4969235;28;88289;-53
2023/03/21 03:01:36;;;;;;;0.60;0.53;;;22.90;45.30;;;;;;4982456;28;88537;-53
2023/03/21 03:04:04;;;;;;;2.37;0.67;;;22.90;45.90;;;;;;4981360;28;88146;-53
2023/03/21 03:06:37;;;;;;;0.67;0.67;;;22.90;45.30;;;;;;4982192;28;87031;-53
2023/03/21 03:09:16;;;;;;;0.70;0.70;;;22.80;45.20;;;;;;4982029;28;87037;-53
2023/03/21 03:11:44;;;;;;;0.57;0.57;;;22.90;45.30;;;;;;4981478;28;87385;-53
2023/03/21 03:14:28;;;;;;;0.50;0.50;;;22.80;45.10;;;;;;4981952;28;87874;-53
2023/03/21 03:17:20;;;;;;;0.50;0.43;;;22.80;45.20;;;;;;4962681;28;87054;-53
2023/03/21 03:19:54;;;;;;;0.43;0.40;;;22.80;45.10;;;;;;4973440;28;89235;-53
2023/03/21 03:22:24;;;;;;;0.40;0.40;;;22.80;45.20;;;;;;4982415;28;87996;-53
2023/03/21 03:24:55;;;;;;;0.60;0.60;;;22.80;45.20;;;;;;4981537;28;87132;-53
2023/03/21 03:27:25;;;;;;;1.00;0.37;;;22.80;45.20;;;;;;4982288;28;87043;-53
2023/03/21 03:29:53;;;;;;;2.43;0.70;;;22.80;45.20;;;;;;4980786;28;90057;-53
2023/03/21 03:32:26;;;;;;;0.60;0.60;;;22.80;45.90;;;;;;4981549;28;88907;-53
2023/03/21 03:34:55;;;;;;;1.17;0.80;;;22.70;45.10;;;;;;4982002;28;87195;-53
2023/03/21 03:37:26;;;;;;;0.83;0.63;;;22.70;45.10;;;;;;4982497;28;87022;-53
2023/03/21 03:39:58;;;;;;;0.60;0.60;;;22.70;45.10;;;;;;4981741;28;89077;-53
2023/03/21 03:42:27;;;;;;;1.63;0.60;;;22.70;45.10;;;;;;4982060;28;89174;-53
2023/03/21 03:44:56;;;;;;;1.73;0.47;;;22.70;45.10;;;;;;4981571;28;86993;-53
2023/03/21 03:47:25;;;;;;;0.43;0.40;;;22.70;45.10;;;;;;4981877;28;86320;-53
2023/03/21 03:50:03;;;;;;;0.30;0.30;;;22.70;45.10;;;;;;4980971;28;88394;-53
2023/03/21 03:52:35;;;;;;;2.90;0.60;;;22.70;45.10;;;;;;4981435;28;87675;-53
2023/03/21 03:55:12;;;;;;;0.97;0.60;;;22.70;45.10;;;;;;4980294;28;88028;-53
2023/03/21 03:57:40;;;;;;;0.40;0.40;;;22.60;45.00;;;;;;4981937;28;87964;-53
2023/03/21 04:00:11;;;;;;;0.40;0.40;;;22.70;45.10;;;;;;4980828;28;88165;-53
2023/03/21 04:02:39;;;;;;;0.70;0.67;;;22.60;45.00;;;;;;4966720;28;87097;-53
2023/03/21 04:05:08;;;;;;;1.63;0.40;;;22.60;45.00;;;;;;4981425;28;87036;-53
2023/03/21 04:07:37;;;;;;;0.50;0.50;;;22.60;45.00;;;;;;4980680;28;87138;-53
2023/03/21 04:10:05;;;;;;;0.30;0.30;;;22.60;45.00;;;;;;4981432;28;87124;-53
2023/03/21 04:12:35;;;;;;;0.70;0.70;;;22.60;45.00;;;;;;4982255;28;87626;-53
2023/03/21 04:15:03;;;;;;;0.40;0.40;;;22.60;44.90;;;;;;4981152;28;87202;-53
2023/03/21 04:17:38;;;;;;;0.50;0.50;;;22.60;45.00;;;;;;4981163;28;87744;-53
2023/03/21 04:20:07;;;;;;;0.40;0.40;;;22.60;44.90;;;;;;4980588;28;89003;-53
2023/03/21 04:22:45;;;;;;;1.77;0.50;;;22.60;44.90;;;;;;4980596;28;89777;-53
2023/03/21 04:25:13;;;;;;;0.60;0.60;;;22.60;44.90;;;;;;4980417;28;87072;-53
2023/03/21 04:27:54;;;;;;;0.70;0.50;;;22.60;44.90;;;;;;4966923;28;87077;-53
2023/03/21 04:30:23;;;;;;;0.40;0.40;;;22.60;44.90;;;;;;4980508;28;87127;-53
2023/03/21 04:32:55;;;;;;;0.37;0.37;;;22.50;44.80;;;;;;4961547;28;88690;-53
2023/03/21 04:35:23;;;;;;;0.50;0.50;;;22.50;44.80;;;;;;4978897;28;88906;-53
2023/03/21 04:37:51;;;;;;;0.93;0.60;;;22.50;44.80;;;;;;4981142;28;86269;-53
2023/03/21 04:40:19;;;;;;;0.50;0.50;;;22.50;44.80;;;;;;4980440;28;88634;-53
2023/03/21 04:42:48;;;;;;;0.57;0.57;;;22.50;44.80;;;;;;4980767;28;87855;-53
2023/03/21 04:45:17;;;;;;;0.60;0.60;;;22.50;44.80;;;;;;4980386;28;88050;-53
2023/03/21 04:47:45;;;;;;;0.63;0.63;;;22.50;44.80;;;;;;4981328;28;86988;-53
2023/03/21 04:50:14;;;;;;;0.47;0.47;;;22.50;44.80;;;;;;4980602;28;88308;-54
2023/03/21 04:52:43;;;;;;;1.23;0.50;;;22.50;44.80;;;;;;4980145;28;89114;-54
2023/03/21 04:55:13;;;;;;;0.80;0.67;;;22.50;44.80;;;;;;4979739;28;87146;-53
2023/03/21 04:57:41;;;;;;;0.87;0.47;;;22.40;44.70;;;;;;4980720;28;87079;-54
2023/03/21 05:00:13;;;;;;;0.83;0.60;;;22.40;44.70;;;;;;4980227;28;89388;-53
2023/03/21 05:02:42;;;;;;;0.87;0.50;;;22.40;44.80;;;;;;4979923;28;87970;-53
2023/03/21 05:05:11;;;;;;;0.60;0.60;;;22.40;45.40;;;;;;4981074;28;87076;-54
2023/03/21 05:07:39;;;;;;;0.70;0.70;;;22.40;44.80;;;;;;4980525;28;87132;-53
2023/03/21 05:10:08;;;;;;;0.40;0.40;;;22.40;44.80;;;;;;4979830;28;89416;-53
2023/03/21 05:12:36;;;;;;;0.80;0.63;;;22.40;44.80;;;;;;4980362;28;89878;-53
2023/03/21 05:15:05;;;;;;;0.60;0.60;;;22.40;44.70;;;;;;4979559;28;87216;-53
2023/03/21 05:17:35;;;;;;;0.50;0.50;;;22.40;44.70;;;;;;4979690;28;87047;-54
2023/03/21 05:20:08;;;;;;;0.83;0.60;;;22.40;44.70;;;;;;4979499;28;88330;-53
2023/03/21 05:22:39;;;;;;;1.00;0.67;;;22.30;44.60;;;;;;4978854;28;89006;-53
2023/03/21 05:25:08;;;;;;;1.13;0.60;;;22.30;44.60;;;;;;4980159;28;87020;-54
2023/03/21 05:27:36;;;;;;;1.00;0.83;;;22.30;44.60;;;;;;4980441;28;86365;-53
2023/03/21 05:30:06;;;;;;;1.07;0.50;;;22.30;44.70;;;;;;4980190;28;88151;-53
2023/03/21 05:32:34;;;;;;;0.70;0.50;;;22.30;44.70;;;;;;4980109;28;88858;-53
2023/03/21 05:35:03;;;;;;;0.73;0.50;;;22.30;44.70;;;;;;4979921;28;89974;-54
2023/03/21 05:37:31;;;;;;;0.57;0.33;;;22.30;44.60;;;;;;4983511;28;87082;-53
2023/03/21 05:39:59;;;;;;;0.80;0.60;;;22.30;44.60;;;;;;4982690;28;88070;-53
2023/03/21 05:42:27;;;;;;;0.60;0.60;;;22.30;44.60;;;;;;4983769;28;88894;-53
2023/03/21 05:44:56;;;;;;;0.80;0.57;;;22.30;44.70;;;;;;4982823;28;87075;-53
2023/03/21 05:47:23;;;;;;;0.70;0.70;;;22.30;44.70;;;;;;4984055;28;87100;-53
2023/03/21 05:49:51;;;;;;;0.77;0.77;;;22.30;44.70;;;;;;4983622;28;87936;-53
2023/03/21 05:52:21;;;;;;;1.80;1.00;;;22.30;45.30;;;;;;4983726;28;87778;-55
2023/03/21 05:54:49;;;;;;;0.30;0.30;;;22.30;44.70;;;;;;4983708;28;87147;-53
2023/03/21 05:57:18;;;;;;;1.10;0.80;;;22.30;44.60;;;;;;4984302;28;87936;-56
2023/03/21 05:59:46;;;;;;;3.67;0.53;;;22.20;45.20;;;;;;4982996;28;89167;-53
2023/03/21 06:02:14;;;;;;;0.83;0.53;;;22.30;44.60;;;;;;4983272;28;89994;-53
2023/03/21 06:04:43;;;;;;;0.93;0.70;;;22.30;44.60;;;;;;4983278;28;87255;-53
2023/03/21 06:07:11;;;;;;;1.33;0.50;;;22.30;45.30;;;;;;4983420;28;87215;-55
2023/03/21 06:09:40;;;;;;;0.67;0.67;;;22.20;45.20;;;;;;4981737;28;88119;-52
2023/03/21 06:12:09;;;;;;;0.57;0.57;;;22.20;44.60;;;;;;4983076;28;88906;-53
2023/03/21 06:14:37;;;;;;;0.50;0.50;;;22.20;44.60;;;;;;4982201;28;87129;-54
2023/03/21 06:17:05;;;;;;;1.47;0.90;;;22.20;44.60;;;;;;4983421;28;86336;-53
2023/03/21 06:19:33;;;;;;;0.60;0.60;;;22.20;44.60;;;;;;4982553;28;88129;-53
2023/03/21 06:22:03;;;;;;;0.60;0.60;;;22.20;44.60;;;;;;4983028;28;87769;-53
2023/03/21 06:24:32;;;;;;;1.80;0.50;;;22.20;44.60;;;;;;4981679;28;87986;-53
2023/03/21 06:27:01;;;;;;;0.80;0.70;;;22.20;44.60;;;;;;4982534;28;87096;-53
2023/03/21 06:29:31;;;;;;;0.40;0.40;;;22.20;44.60;;;;;;4982648;28;88176;-53
2023/03/21 06:31:59;;;;;;;0.30;0.30;;;22.20;44.60;;;;;;4982249;28;87626;-53
2023/03/21 06:34:27;;;;;;;0.73;0.63;;;22.20;44.60;;;;;;4982614;28;87073;-53
2023/03/21 06:36:55;;;;;;;0.83;0.80;;;22.20;44.60;;;;;;4982856;28;87027;-53
2023/03/21 06:39:23;;;;;;;0.80;0.60;;;22.10;44.50;;;;;;4982212;28;89285;-54
2023/03/21 06:41:51;;;;;;;0.47;0.47;;;22.10;44.50;;;;;;4982615;28;87686;-53
2023/03/21 06:44:21;;;;;;;0.57;0.57;;;22.10;44.50;;;;;;4982454;28;87091;-53
2023/03/21 06:46:49;;;;;;;0.40;0.40;;;22.10;44.50;;;;;;4981227;28;86982;-54
2023/03/21 06:49:17;;;;;;;1.03;0.83;;;22.10;44.50;;;;;;4981752;28;90090;-55
2023/03/21 06:51:45;;;;;;;0.73;0.73;;;22.10;44.60;;;;;;4981985;28;89940;-55
2023/03/21 06:54:16;;;;;;;0.63;0.63;;;22.10;44.50;;;;;;4982358;28;87326;-55
2023/03/21 06:56:44;;;;;;;0.50;0.50;;;22.10;44.60;;;;;;4982582;28;87695;-55
2023/03/21 06:59:12;;;;;;;0.83;0.60;;;22.10;44.60;;;;;;4982010;28;88058;-55
2023/03/21 07:01:42;;;;;;;0.83;0.70;;;22.00;44.50;;;;;;4982050;28;88897;-55
2023/03/21 07:04:10;;;;;;;0.83;0.73;;;22.10;44.60;;;;;;4982163;28;87086;-55
2023/03/21 07:06:38;;;;;;;0.63;0.50;;;22.10;44.60;;;;;;4982299;28;86295;-55
2023/03/21 07:09:06;;;;;;;0.67;0.37;;;22.00;44.70;;;;;;4981442;28;88272;-55
2023/03/21 07:11:35;;;;;;;0.50;0.50;;;22.00;44.70;;;;;;4981438;28;88924;-55
2023/03/21 07:14:03;;;;;;;0.60;0.40;;;22.00;44.70;;;;;;4981295;28;88062;-55
2023/03/21 07:16:31;;;;;;;0.83;0.60;;;22.00;44.70;;;;;;4981409;28;87162;-55
2023/03/21 07:19:03;;;;;;;1.37;0.60;;;22.00;45.00;;;;;;4980766;28;88077;-55
2023/03/21 07:21:31;;;;;;;0.40;0.40;;;22.00;45.10;;;;;;4981354;28;87794;-55
2023/03/21 07:23:59;;;;;;;1.80;1.00;;;22.00;45.20;;;;;;4978701;28;87001;-55
2023/03/21 07:26:28;;;;;;;0.30;0.30;;;22.00;45.30;;;;;;4980471;28;87042;-55
2023/03/21 07:28:56;;;;;;;1.50;0.93;;;22.00;45.50;;;;;;4981771;28;88416;-54
2023/03/21 07:31:25;;;;;;;1.40;0.93;;;22.00;45.60;;;;;;4979972;28;87852;-54
2023/03/21 07:33:53;;;;;;;0.43;0.43;;;22.00;45.80;;;;;;4979388;28;88698;-54
2023/03/21 07:36:25;;;;;;;0.53;0.53;;;22.00;46.00;;;;;;4980797;28;87137;-54
2023/03/21 07:38:53;;;;;;;0.70;0.50;;;22.00;46.30;;;;;;4969420;28;90084;-54
2023/03/21 07:41:21;;;;;;;3.83;0.70;;;22.10;46.70;;;;;;4975961;28;88967;-55
2023/03/21 07:43:49;;;;;;;0.60;0.60;;;22.10;47.10;;;;;;4981410;28;87148;-54
2023/03/21 07:46:17;;;;;;;1.67;0.50;;;22.10;47.60;;;;;;4981082;28;87010;-56
2023/03/21 07:48:45;;;;;;;2.93;0.70;;;22.20;48.20;;;;;;4982163;28;88075;-52
2023/03/21 07:51:13;;;;;;;0.87;0.70;;;22.20;48.70;;;;;;4980481;28;88794;-53
2023/03/21 07:53:47;;;;;;;1.07;0.87;;;22.20;49.40;;;;;;4980283;28;87911;-53
2023/03/21 07:56:15;;;;;;;3.07;0.67;;;22.20;49.80;;;;;;4980156;28;86333;-52
2023/03/21 07:58:45;;;;;;;4.10;0.97;;;22.20;51.70;;;;;;4979749;28;89185;-53
2023/03/21 08:01:13;;;;;;;0.50;0.50;;;22.20;57.50;;;;;;4979686;28;87983;-52
2023/03/21 08:03:42;;;;;;;1.13;1.03;;;;;;;;;;4979621;28;87990;-53
2023/03/21 08:06:10;;;;;;;3.07;1.53;;;22.30;45.20;;;;;;4980434;28;87556;-53
2023/03/21 08:08:38;;;;;;;2.33;2.13;;;22.30;46.10;;;;;;4979567;28;88272;-53
2023/03/21 08:11:08;;;;;;;2.67;2.03;;;22.30;46.30;;;;;;4979755;28;87873;-53
2023/03/21 08:13:36;;;;;;;3.47;2.13;;;22.30;46.60;;;;;;4979812;28;87147;-51
2023/03/21 08:16:04;;;;;;;3.30;2.57;;;22.40;47.10;;;;;;4980739;28;87029;-51
2023/03/21 08:18:33;;;;;;;3.67;2.93;;;22.40;47.30;;;;;;4980616;28;88241;-51
2023/03/21 08:21:01;;;;;;;3.40;2.60;;;22.40;47.70;;;;;;4975937;28;89010;-51
2023/03/21 08:23:29;;;;;;;2.10;1.90;;;22.40;47.90;;;;;;4979619;28;87081;-50
2023/03/21 08:26:00;;;;;;;2.37;2.17;;;22.50;48.40;;;;;;4963103;28;87062;-51
2023/03/21 08:28:30;;;;;;;2.70;2.50;;;22.40;48.60;;;;;;4979666;28;89082;-51
2023/03/21 08:30:58;;;;;;;4.30;3.90;;;22.40;49.10;;;;;;4979640;28;88944;-51
2023/03/21 08:33:26;;;;;;;10.73;7.50;;;22.50;50.20;;;;;;4980671;28;87056;-51
2023/03/21 08:35:54;;;;;;;14.47;9.83;;;22.50;50.00;;;;;;4980299;28;87064;-51
2023/03/21 08:38:28;;;;;;;15.40;8.63;;;22.60;50.60;;;;;;4980065;28;88239;-52
2023/03/21 08:41:04;;;;;;;7.90;5.13;;;22.50;51.20;;;;;;4976638;28;87983;-53
2023/03/21 08:43:34;;;;;;;8.97;5.17;;;;;;;;;;4981022;28;87061;-53
2023/03/21 08:46:03;;;;;;;7.00;4.10;;;22.50;87.00;;;;;;4980793;28;86414;-52
2023/03/21 08:48:31;;;;;;;5.37;3.67;;;22.60;58.20;;;;;;4980893;28;88084;-53
2023/03/21 08:51:00;;;;;;;8.67;2.90;;;22.60;52.40;;;;;;4980887;28;89016;-53
2023/03/21 08:53:28;;;;;;;4.23;3.50;;;22.50;50.20;;;;;;4966824;28;88015;-53
2023/03/21 08:55:57;;;;;;;4.20;3.10;;;22.50;49.20;;;;;;4976338;28;87165;-53
2023/03/21 08:58:32;;;;;;;3.33;2.30;;;22.50;48.30;;;;;;4980461;28;89167;-54
2023/03/21 09:01:02;;;;;;;2.77;1.53;;;22.50;48.30;;;;;;4980410;28;87917;-53
2023/03/21 09:03:30;;;;;;;2.50;1.70;;;22.50;48.30;;;;;;4980815;28;87031;-53
2023/03/21 09:05:59;;;;;;;3.43;1.63;;;22.50;47.90;;;;;;4980985;28;87075;-54
2023/03/21 09:08:27;;;;;;;2.17;1.27;;;22.50;47.40;;;;;;4980904;28;88089;-53
2023/03/21 09:10:56;;;;;;;2.40;1.87;;;22.40;47.00;;;;;;4982248;28;87898;-54
2023/03/21 09:13:24;;;;;;;2.73;1.83;;;22.50;47.20;;;;;;4984403;28;87126;-54
2023/03/21 09:15:52;;;;;;;1.80;1.47;;;22.50;47.30;;;;;;4984234;28;87059;-54
2023/03/21 09:18:43;;;;;;;6.73;2.20;;;22.40;47.90;;;;;;4983092;28;89196;-54
2023/03/21 09:21:15;;;;;;;2.40;1.53;;;22.40;47.20;;;;;;4983153;28;88821;-54
2023/03/21 09:23:45;;;;;;;3.03;1.57;;;22.40;47.50;;;;;;4983576;28;87089;-53
2023/03/21 09:26:15;;;;;;;2.57;1.53;;;22.30;47.60;;;;;;4983009;28;87107;-54
2023/03/21 09:28:45;;;;;;;2.47;1.47;;;22.30;49.10;;;;;;4982459;28;88314;-54
2023/03/21 09:31:15;;;;;;;1.80;1.10;;;22.40;50.40;;;;;;4983626;28;89127;-53
2023/03/21 09:33:45;;;;;;;4.00;1.00;;;22.30;53.00;;;;;;4982984;28;87140;-53
2023/03/21 09:36:14;;;;;;;2.87;1.23;;;22.30;55.10;;;;;;4983646;28;86353;-54
2023/03/21 09:38:44;;;;;;;3.33;1.07;;;22.40;50.30;;;;;;4983871;28;89184;-54
2023/03/21 09:41:21;;;;;;;2.60;1.40;;;22.30;51.90;;;;;;4984177;28;87997;-54
2023/03/21 09:43:57;;;;;;;2.50;1.30;;;22.30;54.00;;;;;;4983546;28;88071;-54
2023/03/21 09:46:27;;;;;;;0.87;0.83;;;22.30;52.90;;;;;;4983830;28;87092;-53
2023/03/21 09:48:58;;;;;;;1.40;1.00;;;22.30;53.90;;;;;;4984104;28;88857;-53
2023/03/21 09:51:28;;;;;;;1.63;1.30;;;22.30;54.60;;;;;;4983677;28;87912;-54
2023/03/21 09:53:57;;;;;;;1.20;1.10;;;;;;;;;;4983610;28;87108;-54
2023/03/21 09:56:25;;;;;;;1.50;0.90;;;22.30;53.40;;;;;;4983845;28;87032;-52
2023/03/21 09:58:57;;;;;;;3.27;1.17;;;22.30;54.80;;;;;;4983237;28;88226;-53
2023/03/21 10:01:27;;;;;;;2.10;1.20;;;22.30;51.90;;;;;;4983154;28;87860;-53
2023/03/21 10:03:59;;;;;;;10.77;1.10;;;22.40;52.20;;;;;;4983338;28;87075;-53
2023/03/21 10:06:29;;;;;;;2.07;0.90;;;22.40;53.10;;;;;;4980378;28;86970;-53
2023/03/21 10:08:59;;;;;;;0.87;0.87;;;22.40;55.90;;;;;;4978673;28;88114;-53
2023/03/21 10:11:28;;;;;;;0.80;0.80;;;22.40;53.70;;;;;;4964914;28;87475;-53
2023/03/21 10:13:57;;;;;;;1.13;0.77;;;22.40;54.30;;;;;;4983749;28;87664;-53
2023/03/21 10:16:27;;;;;;;2.00;1.13;;;22.40;57.40;;;;;;4983519;28;86913;-53
2023/03/21 10:18:57;;;;;;;1.47;1.00;;;22.40;54.40;;;;;;4983243;28;89106;-53
2023/03/21 10:21:27;;;;;;;3.47;0.70;;;22.40;54.90;;;;;;4983169;28;87920;-53
2023/03/21 10:24:17;;;;;;;1.80;1.23;;;22.50;62.10;;;;;;4983206;28;86989;-53
2023/03/21 10:26:45;;;;;;;1.17;0.80;;;22.40;55.00;;;;;;4983525;28;86388;-53
2023/03/21 10:29:15;;;;;;;2.93;1.20;;;22.30;59.40;;;;;;4983020;28;88183;-53
2023/03/21 10:31:43;;;;;;;2.87;1.07;;;22.30;59.90;;;;;;4982627;28;87862;-53
2023/03/21 10:34:15;;;;;;;3.23;0.83;;;22.30;56.00;;;;;;4982710;28;88054;-53
2023/03/21 10:36:45;;;;;;;2.23;0.70;;;22.30;52.30;;;;;;4983301;28;87010;-53
2023/03/21 10:39:21;;;;;;;1.20;1.10;;;22.30;52.60;;;;;;4982644;28;88129;-53
2023/03/21 10:41:48;;;;;;;1.77;1.13;;;22.20;52.80;;;;;;4983171;28;86906;-53
2023/03/21 10:44:17;;;;;;;1.83;1.20;;;22.20;52.90;;;;;;4983427;28;87042;-53
2023/03/21 10:46:52;;;;;;;2.80;1.43;;;22.30;52.90;;;;;;4983061;28;87069;-53
2023/03/21 10:49:22;;;;;;;1.03;0.97;;;22.20;53.00;;;;;;4982750;28;87106;-53
2023/03/21 10:51:51;;;;;;;1.17;0.70;;;22.20;53.30;;;;;;4983215;28;88849;-53
2023/03/21 10:54:20;;;;;;;1.07;1.07;;;22.20;54.10;;;;;;4983045;28;87050;-53
2023/03/21 10:56:55;;;;;;;1.83;1.20;;;22.20;55.10;;;;;;4982768;28;87011;-53
2023/03/21 10:59:23;;;;;;;0.83;0.80;;;22.20;56.20;;;;;;4981988;28;88833;-53
2023/03/21 11:01:54;;;;;;;2.40;1.60;;;22.10;52.90;;;;;;4982405;28;88596;-52
2023/03/21 11:04:25;;;;;;;1.60;0.97;;;22.10;55.30;;;;;;4982534;28;87020;-53
2023/03/21 11:06:54;;;;;;;2.20;0.97;;;22.10;58.10;;;;;;4982152;28;87079;-53
2023/03/21 11:09:23;;;;;;;1.00;0.90;;;22.10;54.30;;;;;;4982177;28;87968;-53
2023/03/21 11:11:53;;;;;;;1.43;1.33;;;22.10;54.70;;;;;;4981930;28;88820;-53
2023/03/21 11:14:27;;;;;;;2.13;1.17;;;22.10;55.50;;;;;;4982615;28;86924;-53
2023/03/21 11:16:55;;;;;;;1.37;1.00;;;22.00;54.90;;;;;;4982975;28;86283;-53
2023/03/21 11:19:31;;;;;;;1.17;0.83;;;22.20;53.90;;;;;;4981814;28;88262;-53
2023/03/21 11:21:59;;;;;;;2.10;1.10;;;22.10;53.70;;;;;;4981852;28;87847;-53
2023/03/21 11:24:29;;;;;;;2.87;1.30;;;22.20;54.00;;;;;;4981618;28;87982;-53
2023/03/21 11:26:58;;;;;;;1.93;1.30;;;22.20;54.60;;;;;;4982144;28;87169;-53
2023/03/21 11:29:29;;;;;;;1.83;1.30;;;22.20;55.00;;;;;;4981279;28;88040;-53
2023/03/21 11:32:01;;;;;;;3.37;1.40;;;22.20;54.70;;;;;;4981096;28;88904;-53
2023/03/21 11:34:34;;;;;;;1.30;0.80;;;22.20;56.10;;;;;;4981486;28;87155;-52
2023/03/21 11:37:03;;;;;;;5.37;1.17;;;22.20;61.30;;;;;;4982211;28;87016;-53
2023/03/21 11:39:33;;;;;;;1.50;0.93;;;22.20;55.70;;;;;;4981962;28;88065;-52
2023/03/21 11:42:01;;;;;;;2.73;1.20;;;21.40;63.80;;;;;;4982124;28;88104;-53
2023/03/21 11:44:31;;;;;;;0.87;0.87;;;22.20;57.40;;;;;;4981640;28;87094;-53
2023/03/21 11:47:00;;;;;;;2.10;1.00;;;22.20;58.30;;;;;;4981528;28;87055;-53
2023/03/21 11:49:28;;;;;;;2.00;0.70;;;22.20;59.60;;;;;;4981162;28;87964;-53
2023/03/21 11:52:06;;;;;;;2.27;1.77;;;22.20;58.30;;;;;;4981582;28;88900;-53
2023/03/21 11:54:40;;;;;;;2.10;1.00;;;22.20;64.20;;;;;;4981726;28;87001;-53
2023/03/21 11:57:10;;;;;;;0.90;0.90;;;;;;;;;;4981523;28;86984;-53
2023/03/21 11:59:42;;;;;;;1.77;0.87;;;22.50;59.60;;;;;;4981284;28;89178;-53
2023/03/21 12:02:44;;;;;;;4.90;1.30;;;22.30;58.10;;;;;;4981443;28;88782;-53
2023/03/21 12:05:18;;;;;;;1.50;0.83;;;22.10;53.30;;;;;;4981889;28;87063;-53
2023/03/21 12:07:52;;;;;;;0.80;0.80;;;22.20;53.50;;;;;;4982107;28;86303;-53
2023/03/21 12:10:30;;;;;;;1.23;0.80;;;22.20;53.70;;;;;;4981041;28;89249;-53
2023/03/21 12:13:04;;;;;;;1.47;1.30;;;22.10;53.90;;;;;;4981307;28;87849;-53
2023/03/21 12:15:35;;;;;;;2.77;1.20;;;22.10;54.60;;;;;;4981376;28;88035;-53
2023/03/21 12:18:06;;;;;;;2.37;1.43;;;22.20;55.30;;;;;;4981582;28;87040;-52
2023/03/21 12:20:41;;;;;;;2.03;1.00;;;22.10;57.20;;;;;;4981412;28;88099;-52
2023/03/21 12:23:20;;;;;;;2.30;1.10;;;22.10;55.80;;;;;;4980927;28;86959;-52
2023/03/21 12:25:53;;;;;;;1.30;1.20;;;22.10;56.70;;;;;;4981280;28;87728;-53
2023/03/21 12:28:27;;;;;;;2.07;1.10;;;22.20;63.30;;;;;;4981265;28;87182;-52
2023/03/21 12:31:04;;;;;;;1.20;0.80;;;22.10;55.70;;;;;;4980696;28;89092;-53
2023/03/21 12:33:42;;;;;;;2.80;1.10;;;22.10;55.40;;;;;;4981204;28;86587;-52
2023/03/21 12:36:31;;;;;;;2.93;1.63;;;22.10;55.50;;;;;;4981303;28;88268;-52
2023/03/21 12:39:05;;;;;;;1.40;0.63;;;22.10;56.00;;;;;;4980679;28;87100;-52
2023/03/21 12:41:34;;;;;;;1.60;1.20;;;22.10;56.40;;;;;;4980130;28;88133;-52
2023/03/21 12:44:03;;;;;;;2.80;1.17;;;22.10;57.70;;;;;;4980638;28;89640;-52
2023/03/21 12:46:34;;;;;;;1.70;0.93;;;22.10;62.20;;;;;;4981175;28;87100;-52
2023/03/21 12:49:03;;;;;;;0.80;0.70;;;23.50;55.60;;;;;;4981074;28;87154;-52
2023/03/21 12:51:33;;;;;;;2.47;1.10;;;22.10;54.50;;;;;;4981126;28;88034;-52
2023/03/21 12:54:11;;;;;;;3.03;1.60;;;22.10;54.70;;;;;;4980924;28;87046;-52
2023/03/21 12:56:41;;;;;;;2.10;0.97;;;22.10;55.20;;;;;;4981577;28;87008;-52
2023/03/21 12:59:16;;;;;;;2.33;1.47;;;22.10;55.50;;;;;;4980861;28;86333;-52
2023/03/21 13:01:44;;;;;;;1.47;1.20;;;22.10;55.60;;;;;;4980158;28;89219;-53
2023/03/21 13:04:35;;;;;;;2.90;1.57;;;22.10;56.00;;;;;;4980833;28;88905;-52
2023/03/21 13:07:05;;;;;;;1.73;1.10;;;22.10;56.10;;;;;;4970355;28;88084;-53
2023/03/21 13:09:36;;;;;;;4.47;1.00;;;22.10;56.70;;;;;;4980148;28;87075;-52
2023/03/21 13:12:22;;;;;;;1.10;0.90;;;22.00;54.10;;;;;;4980011;28;88096;-52
2023/03/21 13:15:03;;;;;;;1.60;0.90;;;22.10;53.70;;;;;;4980775;28;88836;-52
2023/03/21 13:17:39;;;;;;;2.60;1.00;;;22.10;53.70;;;;;;4980735;28;87064;-52
2023/03/21 13:20:10;;;;;;;3.43;1.67;;;22.10;54.20;;;;;;4981072;28;87138;-52
2023/03/21 13:22:39;;;;;;;1.27;1.10;;;22.10;54.60;;;;;;4980494;28;88281;-53
2023/03/21 13:25:17;;;;;;;1.23;1.13;;;22.10;55.70;;;;;;4980489;28;88074;-53